Time;durP1;ratioP1;P1;durP2;ratioP2;P2;SDS_P1;SDS_P2;PMS_P1;PMS_P2;Temp;Humidity;BMP_temperature;BMP_pressure;BME280_temperature;BME280_humidity;BME280_pressure;Samples;Min_cycle;Max_cycle;Signal;HPM_P1;HPM_P2
2022/11/30 00:01:15;;;;;;;21.10;15.30;;;;;;;1.35;74.79;101705.17;104445;1321;37029;-70
2022/11/30 00:03:49;;;;;;;29.80;17.80;;;;;;;1.38;74.85;101704.05;104440;1316;37154;-69
2022/11/30 00:06:23;;;;;;;40.10;20.40;;;;;;;1.38;74.96;101703.51;104426;1315;37108;-71
2022/11/30 00:09:00;;;;;;;89.40;36.30;;;;;;;1.38;74.94;101706.78;104385;1318;37079;-68
2022/11/30 00:11:34;;;;;;;27.30;17.70;;;;;;;1.40;74.88;101704.43;104439;1321;37394;-69
2022/11/30 00:14:12;;;;;;;46.30;24.00;;;;;;;1.32;74.12;101704.77;104389;1315;37096;-68
2022/11/30 00:16:47;;;;;;;22.70;15.80;;;;;;;1.28;74.45;101706.58;104462;1317;37131;-70
2022/11/30 00:19:20;;;;;;;40.20;20.90;;;;;;;1.27;74.34;101708.96;104417;1316;36464;-70
2022/11/30 00:21:57;;;;;;;28.60;16.60;;;;;;;1.26;74.61;101707.23;104411;1315;37025;-70
2022/11/30 00:24:32;;;;;;;36.40;19.20;;;;;;;1.25;74.75;101701.71;104412;1322;37003;-70
2022/11/30 00:27:05;;;;;;;37.50;19.00;;;;;;;1.25;74.57;101704.48;104448;1315;37046;-70
2022/11/30 00:29:39;;;;;;;25.50;15.70;;;;;;;1.21;74.60;101706.44;104293;1315;172568;-69
2022/11/30 00:32:15;;;;;;;23.20;15.30;;;;;;;1.20;74.48;101712.10;104431;1323;37104;-70
2022/11/30 00:34:52;;;;;;;25.20;15.10;;;;;;;1.20;74.66;101714.84;104421;1323;37321;-70
2022/11/30 00:37:28;;;;;;;41.80;21.60;;;;;;;1.17;74.39;101711.84;104440;1322;37115;-69
2022/11/30 00:40:05;;;;;;;40.00;22.00;;;;;;;1.14;74.70;101715.75;104426;1317;37144;-69
2022/11/30 00:42:41;;;;;;;41.50;22.30;;;;;;;1.14;74.53;101714.52;104411;1323;37264;-71
2022/11/30 00:45:16;;;;;;;27.90;15.20;;;;;;;1.16;74.86;101715.77;104413;1317;37069;-71
2022/11/30 00:47:52;;;;;;;23.80;14.10;;;;;;;1.18;74.66;101724.76;104436;1315;38293;-71
2022/11/30 00:50:29;;;;;;;22.70;14.20;;;;;;;1.17;74.53;101721.29;104299;1316;172589;-69
2022/11/30 00:53:03;;;;;;;23.20;14.40;;;;;;;1.15;74.59;101724.70;104332;1319;38127;-69
2022/11/30 00:55:40;;;;;;;24.70;15.20;;;;;;;1.14;74.61;101724.16;104434;1316;38800;-69
2022/11/30 00:58:14;;;;;;;27.10;17.40;;;;;;;1.11;74.70;101727.52;104441;1315;37327;-70
2022/11/30 01:00:50;;;;;;;21.50;15.50;;;;;;;1.10;74.91;101723.73;104402;1317;37096;-70
2022/11/30 01:03:25;;;;;;;32.40;17.90;;;;;;;1.10;74.92;101723.21;104415;1315;37321;-70
2022/11/30 01:06:10;;;;;;;23.30;14.20;;;;;;;1.10;74.84;101722.70;104390;1315;37207;-69
2022/11/30 01:08:44;;;;;;;27.00;15.30;;;;;;;1.12;74.84;101720.84;104446;1315;37154;-68
2022/11/30 01:11:23;;;;;;;20.80;14.10;;;;;;;1.14;74.85;101727.08;104408;1319;37321;-69
2022/11/30 01:13:58;;;;;;;20.50;14.40;;;;;;;1.12;74.74;101730.63;104315;1320;175944;-69
2022/11/30 01:16:33;;;;;;;20.00;14.30;;;;;;;1.09;74.90;101731.08;104443;1315;38408;-70
2022/11/30 01:19:07;;;;;;;22.60;15.20;;;;;;;1.06;74.91;101733.42;104427;1322;37600;-68
2022/11/30 01:21:43;;;;;;;20.50;13.60;;;;;;;1.09;75.03;101732.80;104434;1317;37077;-67
2022/11/30 01:24:21;;;;;;;26.50;16.10;;;;;;;1.08;75.00;101732.28;104420;1317;38286;-69
2022/11/30 01:26:57;;;;;;;17.80;13.90;;;;;;;1.07;74.84;101732.58;104404;1317;37117;-70
2022/11/30 01:29:32;;;;;;;21.50;14.20;;;;;;;1.03;74.72;101734.75;104404;1315;37090;-70
2022/11/30 01:32:06;;;;;;;30.40;17.80;;;;;;;1.01;75.06;101732.30;104432;1322;38530;-70
2022/11/30 01:34:44;;;;;;;20.30;13.00;;;;;;;1.06;75.15;101733.08;104404;1315;36166;-68
2022/11/30 01:37:20;;;;;;;22.00;14.80;;;;;;;1.06;74.89;101735.84;104464;1322;38268;-68
2022/11/30 01:39:54;;;;;;;22.50;14.70;;;;;;;1.07;75.33;101740.14;104377;1315;38292;-69
2022/11/30 01:42:31;;;;;;;28.80;17.40;;;;;;;1.12;75.37;101741.65;104375;1322;36087;-68
2022/11/30 01:45:13;;;;;;;20.60;13.50;;;;;;;1.16;75.30;101740.01;104391;1321;39066;-70
2022/11/30 01:47:53;;;;;;;20.90;14.00;;;;;;;1.13;74.98;101742.70;104409;1315;37033;-69
2022/11/30 01:50:29;;;;;;;21.30;13.30;;;;;;;1.12;75.10;101739.58;104395;1322;36107;-70
2022/11/30 01:53:06;;;;;;;19.50;12.20;;;;;;;1.14;75.13;101741.52;104429;1323;37259;-70
2022/11/30 01:55:42;;;;;;;23.20;15.30;;;;;;;1.13;74.80;101742.02;104411;1315;37613;-70
2022/11/30 01:58:24;;;;;;;20.30;13.90;;;;;;;1.15;74.91;101745.32;104431;1322;37039;-68
2022/11/30 02:01:03;;;;;;;28.80;16.60;;;;;;;1.14;75.02;101740.33;104436;1323;36115;-70
2022/11/30 02:03:41;;;;;;;25.40;15.70;;;;;;;1.16;74.94;101743.27;104353;1322;187312;-71
2022/11/30 02:06:17;;;;;;;23.90;15.40;;;;;;;1.16;74.97;101743.27;104403;1315;36105;-69
2022/11/30 02:08:55;;;;;;;23.30;14.00;;;;;;;1.13;74.73;101743.23;104424;1323;36970;-68
2022/11/30 02:11:33;;;;;;;19.80;13.90;;;;;;;1.11;74.51;101743.67;104433;1322;37438;-67
2022/11/30 02:14:24;;;;;;;21.20;13.50;;;;;;;1.09;74.57;101744.82;104278;1315;174696;-70
2022/11/30 02:17:07;;;;;;;22.10;14.60;;;;;;;1.09;74.86;101738.30;104415;1315;37007;-71
2022/11/30 02:20:29;;;;;;;24.90;15.20;;;;;;;1.11;75.08;101739.90;104434;1317;37456;-68
2022/11/30 02:23:29;;;;;;;24.50;14.80;;;;;;;1.12;74.81;101741.81;104446;1323;38509;-71
2022/11/30 02:26:11;;;;;;;26.90;15.00;;;;;;;1.07;74.83;101739.12;104403;1322;37127;-71
2022/11/30 02:29:06;;;;;;;24.80;15.00;;;;;;;1.07;74.68;101738.27;104419;1321;37746;-70
2022/11/30 02:31:47;;;;;;;24.80;15.20;;;;;;;1.10;74.92;101739.36;104383;1316;37301;-70
2022/11/30 02:34:25;;;;;;;20.90;14.00;;;;;;;1.14;75.03;101742.89;104423;1323;37128;-68
2022/11/30 02:36:59;;;;;;;26.30;15.70;;;;;;;1.16;74.75;101743.80;104447;1315;37316;-70
2022/11/30 02:39:38;;;;;;;24.80;15.60;;;;;;;1.14;74.71;101747.36;104414;1322;37240;-70
2022/11/30 02:42:15;;;;;;;24.70;14.20;;;;;;;1.14;74.82;101749.09;104434;1315;37104;-70
2022/11/30 02:44:53;;;;;;;22.60;15.00;;;;;;;1.15;74.58;101755.63;104436;1322;37192;-68
2022/11/30 02:47:33;;;;;;;20.10;13.70;;;;;;;1.12;74.72;101755.91;104442;1322;38205;-69
2022/11/30 02:50:13;;;;;;;22.10;15.40;;;;;;;1.16;74.81;101755.14;104420;1322;37075;-68
2022/11/30 02:52:47;;;;;;;25.00;15.70;;;;;;;1.19;75.04;101752.81;104408;1322;38270;-68
2022/11/30 02:55:22;;;;;;;28.90;17.20;;;;;;;1.17;74.83;101755.66;104412;1322;37299;-68
2022/11/30 02:57:58;;;;;;;24.60;15.70;;;;;;;1.20;75.00;101752.48;104421;1321;37082;-69
2022/11/30 03:00:33;;;;;;;20.90;13.90;;;;;;;1.24;75.08;101748.80;104409;1316;37143;-70
2022/11/30 03:03:06;;;;;;;23.40;15.50;;;;;;;1.28;75.09;101753.01;104432;1314;37401;-70
2022/11/30 03:05:40;;;;;;;27.10;16.40;;;;;;;1.30;74.94;101754.25;104429;1316;37085;-68
2022/11/30 03:08:14;;;;;;;26.10;15.90;;;;;;;1.30;74.84;101762.16;104335;1321;37578;-70
2022/11/30 03:10:48;;;;;;;25.00;16.50;;;;;;;1.25;74.72;101763.41;104314;1322;174839;-68
2022/11/30 03:13:28;;;;;;;30.50;18.10;;;;;;;1.17;74.68;101763.94;104386;1315;37754;-69
2022/11/30 03:16:10;;;;;;;25.60;14.70;;;;;;;1.16;74.91;101760.64;104419;1322;37185;-68
2022/11/30 03:18:47;;;;;;;26.20;15.90;;;;;;;1.13;74.69;101762.11;104426;1321;38514;-69
2022/11/30 03:21:23;;;;;;;29.30;18.30;;;;;;;1.13;75.02;101759.52;104396;1321;37319;-67
2022/11/30 03:23:59;;;;;;;28.40;17.50;;;;;;;1.13;74.89;101761.23;104400;1321;36116;-70
2022/11/30 03:26:35;;;;;;;27.60;17.70;;;;;;;1.12;75.10;101762.42;104419;1316;36224;-69
2022/11/30 03:29:09;;;;;;;26.00;16.70;;;;;;;1.14;75.06;101763.69;104396;1323;37159;-69
2022/11/30 03:31:43;;;;;;;33.50;19.30;;;;;;;1.12;75.14;101763.98;104410;1322;38143;-69
2022/11/30 03:34:25;;;;;;;27.00;16.60;;;;;;;1.12;74.92;101767.25;104383;1322;37112;-68
2022/11/30 03:36:59;;;;;;;26.80;16.40;;;;;;;1.14;75.07;101768.50;104455;1323;37559;-69
2022/11/30 03:39:37;;;;;;;27.80;16.90;;;;;;;1.13;75.15;101771.91;104392;1321;38758;-70
2022/11/30 03:42:14;;;;;;;24.80;16.80;;;;;;;1.13;75.06;101775.17;104421;1322;37873;-70
2022/11/30 03:44:52;;;;;;;29.40;17.30;;;;;;;1.14;75.28;101777.61;104402;1321;39034;-70
2022/11/30 03:47:28;;;;;;;26.30;17.70;;;;;;;1.17;75.22;101776.12;104408;1314;38953;-70
2022/11/30 03:50:01;;;;;;;39.80;22.30;;;;;;;1.20;75.29;101781.02;104428;1316;37217;-70
2022/11/30 03:52:38;;;;;;;30.20;18.90;;;;;;;1.26;75.34;101776.33;104401;1320;37199;-69
2022/11/30 03:55:15;;;;;;;27.30;17.00;;;;;;;1.31;75.19;101780.39;104370;1322;37049;-68
2022/11/30 03:57:54;;;;;;;26.60;16.90;;;;;;;1.29;75.01;101777.10;104438;1315;37229;-68
2022/11/30 04:00:28;;;;;;;36.90;20.50;;;;;;;1.28;74.93;101776.20;104400;1322;37383;-68
2022/11/30 04:03:02;;;;;;;30.00;18.50;;;;;;;1.26;74.83;101780.46;104311;1317;174665;-67
2022/11/30 04:05:36;;;;;;;32.60;19.70;;;;;;;1.24;74.66;101777.34;104414;1323;37112;-67
2022/11/30 04:08:13;;;;;;;24.60;15.80;;;;;;;1.24;74.78;101784.04;104394;1323;38133;-71
2022/11/30 04:10:54;;;;;;;24.20;15.30;;;;;;;1.26;74.72;101785.09;104431;1315;37210;-69
2022/11/30 04:13:34;;;;;;;25.00;16.90;;;;;;;1.29;74.84;101786.56;104421;1322;36150;-68
2022/11/30 04:16:12;;;;;;;;;;;;;;;1.29;74.62;101791.53;104451;1322;37647;-68
2022/11/30 04:18:52;;;;;;;27.00;16.30;;;;;;;1.24;74.44;101789.90;104384;1323;37137;-68
2022/11/30 04:21:29;;;;;;;23.40;15.80;;;;;;;1.19;74.39;101788.91;104392;1322;38288;-68
2022/11/30 04:24:08;;;;;;;25.20;15.50;;;;;;;1.17;74.55;101786.10;104393;1321;37152;-68
2022/11/30 04:26:41;;;;;;;25.40;15.40;;;;;;;1.18;74.66;101786.98;104418;1315;37025;-68
2022/11/30 04:29:18;;;;;;;23.30;15.40;;;;;;;1.22;74.69;101785.17;104426;1322;38309;-70
2022/11/30 04:31:53;;;;;;;25.30;15.80;;;;;;;1.28;74.74;101788.95;104414;1322;37112;-68
2022/11/30 04:34:30;;;;;;;25.50;16.40;;;;;;;1.30;74.56;101791.56;104460;1318;37086;-68
2022/11/30 04:37:05;;;;;;;28.30;17.50;;;;;;;1.29;74.56;101794.45;104466;1299;37110;-68
2022/11/30 04:39:43;;;;;;;28.10;16.70;;;;;;;1.26;74.50;101796.11;104428;1321;37090;-68
2022/11/30 04:42:22;;;;;;;28.00;16.10;;;;;;;1.22;74.39;101794.30;104435;1313;36998;-68
2022/11/30 04:44:59;;;;;;;24.10;15.90;;;;;;;1.22;74.46;101796.88;104458;1321;38298;-68
2022/11/30 04:47:33;;;;;;;26.80;16.20;;;;;;;1.24;74.45;101795.55;104430;1313;37431;-67
2022/11/30 04:50:09;;;;;;;28.40;18.30;;;;;;;1.27;74.71;101796.81;104449;1320;37103;-69
2022/11/30 04:52:43;;;;;;;25.50;17.60;;;;;;;1.35;74.80;101798.88;104498;1321;37731;-67
2022/11/30 04:55:20;;;;;;;26.50;16.70;;;;;;;1.36;74.56;101800.98;104346;1316;174380;-70
2022/11/30 04:57:53;;;;;;;27.80;17.10;;;;;;;1.32;74.31;101803.11;104474;1321;37058;-68
2022/11/30 05:00:29;;;;;;;28.80;15.70;;;;;;;1.29;74.48;101806.69;104452;1314;37132;-69
2022/11/30 05:03:03;;;;;;;22.20;16.00;;;;;;;1.31;74.36;101804.63;104341;1323;174693;-69
2022/11/30 05:05:39;;;;;;;27.60;15.30;;;;;;;1.35;74.49;101806.62;104451;1321;38262;-69
2022/11/30 05:08:14;;;;;;;23.40;15.60;;;;;;;1.36;74.47;101810.25;104450;1321;38165;-70
2022/11/30 05:10:58;;;;;;;24.20;14.90;;;;;;;1.35;74.39;101811.27;104481;1322;37080;-70
2022/11/30 05:13:34;;;;;;;25.30;16.80;;;;;;;1.38;74.71;101813.42;104483;1319;37112;-69
2022/11/30 05:16:21;;;;;;;21.80;15.00;;;;;;;1.37;74.42;101814.92;104463;1315;36524;-70
2022/11/30 05:18:55;;;;;;;21.90;14.50;;;;;;;1.33;74.30;101812.77;104452;1318;37099;-70
2022/11/30 05:21:31;;;;;;;23.10;15.30;;;;;;;1.35;74.39;101812.48;104487;1322;38285;-67
2022/11/30 05:24:05;;;;;;;20.90;14.90;;;;;;;1.41;74.63;101808.65;104466;1315;37024;-70
2022/11/30 05:26:39;;;;;;;24.60;15.30;;;;;;;1.45;74.44;101807.71;104481;1317;37443;-70
2022/11/30 05:29:14;;;;;;;25.10;15.40;;;;;;;1.44;73.84;101810.63;104472;1322;38137;-70
2022/11/30 05:31:48;;;;;;;24.40;16.10;;;;;;;1.41;74.06;101810.38;104475;1322;37561;-68
2022/11/30 05:34:29;;;;;;;23.00;13.80;;;;;;;1.39;74.10;101812.92;104487;1321;37088;-69
2022/11/30 05:37:04;;;;;;;25.20;15.00;;;;;;;1.35;73.73;101814.89;104488;1316;37394;-67
2022/11/30 05:39:40;;;;;;;18.70;13.10;;;;;;;1.33;73.89;101817.58;104347;1320;174697;-69
2022/11/30 05:42:13;;;;;;;18.80;14.90;;;;;;;1.34;73.96;101819.84;104499;1322;38899;-68
2022/11/30 05:44:48;;;;;;;21.30;14.40;;;;;;;1.36;74.23;101821.27;104477;1315;37104;-68
2022/11/30 05:47:22;;;;;;;21.70;15.00;;;;;;;1.37;73.91;101825.91;104468;1322;37111;-72
2022/11/30 05:50:03;;;;;;;21.60;15.00;;;;;;;1.36;73.99;101829.34;104459;1310;37226;-70
2022/11/30 05:52:39;;;;;;;21.40;15.30;;;;;;;1.35;74.14;101832.94;104474;1322;37226;-70
2022/11/30 05:55:13;;;;;;;24.20;14.20;;;;;;;1.38;74.23;101834.02;104485;1322;36033;-70
2022/11/30 05:57:47;;;;;;;22.00;14.50;;;;;;;1.39;74.08;101832.17;104471;1320;37363;-70
2022/11/30 06:00:25;;;;;;;21.70;15.70;;;;;;;1.40;74.10;101832.19;104481;1315;37597;-69
2022/11/30 06:03:05;;;;;;;22.40;14.50;;;;;;;1.44;74.23;101833.14;104487;1322;36861;-69
2022/11/30 06:05:38;;;;;;;22.90;15.70;;;;;;;1.44;73.76;101831.25;104457;1322;37024;-70
2022/11/30 06:08:12;;;;;;;24.10;16.20;;;;;;;1.40;73.72;101834.09;104474;1320;37013;-70
2022/11/30 06:10:48;;;;;;;42.00;23.90;;;;;;;1.39;73.98;101837.67;104461;1322;37133;-68
2022/11/30 06:13:28;;;;;;;31.70;18.30;;;;;;;1.38;73.64;101839.52;104460;1318;36981;-71
2022/11/30 06:16:06;;;;;;;22.50;15.30;;;;;;;1.34;73.81;101842.04;104457;1316;36981;-68
2022/11/30 06:18:43;;;;;;;23.20;14.50;;;;;;;1.37;74.12;101840.02;104474;1322;37083;-68
2022/11/30 06:21:18;;;;;;;24.90;15.30;;;;;;;1.40;74.08;101841.64;104489;1315;38249;-68
2022/11/30 06:23:56;;;;;;;33.30;19.70;;;;;;;1.44;74.10;101841.40;104490;1316;37094;-68
2022/11/30 06:26:33;;;;;;;25.20;16.40;;;;;;;1.42;73.69;101841.88;104460;1322;37108;-69
2022/11/30 06:29:08;;;;;;;29.50;17.00;;;;;;;1.42;73.84;101840.13;104477;1322;37085;-70
2022/11/30 06:31:45;;;;;;;19.50;13.20;;;;;;;1.41;73.42;101841.16;104440;1322;37171;-69
2022/11/30 06:34:26;;;;;;;20.30;14.80;;;;;;;1.41;73.51;101842.19;104459;1315;36146;-69
2022/11/30 06:37:08;;;;;;;23.70;16.30;;;;;;;1.39;73.47;101840.77;104406;1322;37050;-70
2022/11/30 06:39:43;;;;;;;28.90;17.70;;;;;;;1.39;73.53;101852.29;104456;1322;38248;-68
2022/11/30 06:42:20;;;;;;;25.30;16.70;;;;;;;1.38;73.59;101854.50;104498;1322;38215;-68
2022/11/30 06:44:57;;;;;;;25.70;16.80;;;;;;;1.35;73.60;101860.79;104451;1322;37088;-70
2022/11/30 06:47:34;;;;;;;20.50;14.20;;;;;;;1.34;73.59;101860.05;104475;1315;38882;-70
2022/11/30 06:50:12;;;;;;;19.90;14.40;;;;;;;1.33;73.52;101857.98;104451;1315;36836;-68
2022/11/30 06:52:49;;;;;;;18.40;13.40;;;;;;;1.34;73.73;101863.00;104457;1315;37309;-70
2022/11/30 06:55:31;;;;;;;18.40;13.70;;;;;;;1.35;73.83;101860.27;104461;1322;38121;-68
2022/11/30 06:58:09;;;;;;;22.30;14.10;;;;;;;1.37;73.70;101866.69;104485;1322;37089;-68
2022/11/30 07:00:44;;;;;;;22.50;14.90;;;;;;;1.34;73.69;101865.25;104442;1322;37353;-68
2022/11/30 07:03:22;;;;;;;20.10;14.70;;;;;;;1.32;73.70;101865.17;104476;1322;37264;-68
2022/11/30 07:05:57;;;;;;;20.90;14.70;;;;;;;1.29;73.87;101865.12;104483;1315;37002;-70
2022/11/30 07:08:33;;;;;;;21.80;14.30;;;;;;;1.31;73.72;101869.11;104134;1316;437249;-70
2022/11/30 07:11:13;;;;;;;20.50;15.30;;;;;;;1.30;73.64;101876.66;104395;1321;174668;-70
2022/11/30 07:13:49;;;;;;;23.10;15.60;;;;;;;1.31;74.04;101878.05;104447;1319;37352;-70
2022/11/30 07:16:25;;;;;;;23.50;15.20;;;;;;;1.35;73.96;101876.09;104503;1322;37096;-69
2022/11/30 07:18:59;;;;;;;21.90;14.40;;;;;;;1.36;73.90;101874.89;104480;1316;37146;-69
2022/11/30 07:21:34;;;;;;;24.50;14.70;;;;;;;1.34;73.88;101881.56;104466;1322;37082;-69
2022/11/30 07:27:00;;;;;;;22.00;14.70;;;;;;;1.29;74.16;101877.67;104474;1315;37083;-70
2022/11/30 07:29:36;;;;;;;20.70;15.10;;;;;;;1.37;74.37;101879.23;104487;1316;37372;-68
2022/11/30 07:32:13;;;;;;;21.80;14.90;;;;;;;1.43;74.17;101879.73;104487;1316;37047;-71
2022/11/30 07:34:49;;;;;;;23.60;15.30;;;;;;;1.43;74.08;101876.63;104473;1322;37265;-71
2022/11/30 07:37:23;;;;;;;26.60;17.40;;;;;;;1.42;74.07;101873.66;104408;1322;37208;-68
2022/11/30 07:39:57;;;;;;;24.10;15.40;;;;;;;1.40;74.09;101876.89;104453;1315;37137;-68
2022/11/30 07:42:31;;;;;;;23.60;16.00;;;;;;;1.39;74.09;101882.89;104455;1317;37106;-71
2022/11/30 07:45:06;;;;;;;22.50;14.60;;;;;;;1.41;73.96;101886.54;104431;1322;36771;-69
2022/11/30 07:47:41;;;;;;;19.00;13.70;;;;;;;1.43;74.04;101885.39;104401;1322;36202;-70
2022/11/30 07:50:18;;;;;;;22.40;14.40;;;;;;;1.44;73.80;101885.60;104430;1322;37115;-69
2022/11/30 07:52:52;;;;;;;24.50;15.40;;;;;;;1.46;73.69;101886.31;104439;1316;37254;-70
2022/11/30 07:55:28;;;;;;;24.10;15.70;;;;;;;1.45;73.70;101887.14;104433;1316;37644;-70
2022/11/30 07:58:05;;;;;;;21.50;14.90;;;;;;;1.41;73.77;101884.13;104409;1316;37054;-71
2022/11/30 08:00:39;;;;;;;27.70;16.80;;;;;;;1.41;73.84;101888.94;104417;1316;37136;-71
2022/11/30 08:03:13;;;;;;;23.10;15.00;;;;;;;1.41;73.85;101887.75;104526;1315;37631;-71
2022/11/30 08:05:52;;;;;;;22.80;15.50;;;;;;;1.45;74.06;101885.96;104503;1315;38200;-71
2022/11/30 08:08:29;;;;;;;24.90;16.60;;;;;;;1.47;74.00;101883.08;104515;1321;37708;-70
2022/11/30 08:11:03;;;;;;;26.30;16.80;;;;;;;1.48;73.87;101882.07;104520;1316;37216;-71
2022/11/30 08:13:40;;;;;;;25.70;15.00;;;;;;;1.47;73.99;101883.27;104519;1315;36024;-71
2022/11/30 08:16:21;;;;;;;20.80;14.50;;;;;;;1.49;74.12;101881.05;104529;1313;36975;-71
2022/11/30 08:18:57;;;;;;;25.90;17.00;;;;;;;1.49;74.07;101883.81;104494;1321;37511;-71
2022/11/30 08:21:32;;;;;;;21.80;13.00;;;;;;;1.51;73.78;101884.36;104528;1322;36465;-69
2022/11/30 08:24:09;;;;;;;21.80;14.40;;;;;;;1.48;73.69;101889.48;104491;1321;37483;-70
2022/11/30 08:26:42;;;;;;;24.00;17.40;;;;;;;1.50;74.00;101887.27;104528;1322;37066;-69
2022/11/30 08:29:18;;;;;;;23.70;15.40;;;;;;;1.49;73.95;101886.91;104381;1316;172516;-72
2022/11/30 08:31:53;;;;;;;22.60;16.10;;;;;;;1.46;74.05;101887.00;104516;1316;37219;-71
2022/11/30 08:34:28;;;;;;;21.30;14.70;;;;;;;1.41;74.09;101886.89;104510;1320;37073;-71
2022/11/30 08:37:02;;;;;;;24.60;16.90;;;;;;;1.43;74.14;101891.91;104510;1316;37032;-71
2022/11/30 08:39:39;;;;;;;27.10;16.40;;;;;;;1.47;74.34;101894.42;104526;1316;37128;-69
2022/11/30 08:42:13;;;;;;;22.80;14.40;;;;;;;1.52;74.47;101891.44;104545;1322;38172;-71
2022/11/30 08:44:52;;;;;;;26.20;15.10;;;;;;;1.56;74.50;101893.08;104570;1314;37006;-71
2022/11/30 08:47:27;;;;;;;23.00;16.00;;;;;;;1.57;74.34;101894.31;104572;1316;37040;-74
2022/11/30 08:50:03;;;;;;;25.60;17.10;;;;;;;1.54;74.37;101896.33;104556;1314;37223;-71
2022/11/30 08:52:38;;;;;;;24.40;16.70;;;;;;;1.52;74.19;101895.77;104539;1316;37144;-70
2022/11/30 08:55:13;;;;;;;20.00;13.70;;;;;;;1.50;74.17;101897.59;104536;1322;38448;-73
2022/11/30 08:57:52;;;;;;;21.70;15.80;;;;;;;1.47;74.26;101895.30;104456;1316;37074;-73
2022/11/30 09:00:27;;;;;;;24.10;16.50;;;;;;;1.49;74.28;101891.89;104526;1316;37081;-73
2022/11/30 09:03:05;;;;;;;25.40;16.90;;;;;;;1.50;74.29;101893.64;104556;1315;36711;-73
2022/11/30 09:05:44;;;;;;;26.20;14.80;;;;;;;1.48;74.44;101892.56;104514;1321;37316;-70
2022/11/30 09:08:23;;;;;;;25.90;16.00;;;;;;;1.46;74.43;101894.06;104508;1322;37020;-69
2022/11/30 09:11:08;;;;;;;22.50;15.30;;;;;;;1.47;74.53;101896.83;104564;1318;38459;-69
2022/11/30 09:13:46;;;;;;;19.80;14.30;;;;;;;1.45;74.62;101894.39;104537;1320;37004;-69
2022/11/30 09:16:21;;;;;;;;;;;;;;;1.47;74.67;101897.71;104562;1322;36997;-69
2022/11/30 09:18:57;;;;;;;23.40;14.80;;;;;;;1.49;74.82;101897.91;104518;1315;38443;-70
2022/11/30 09:21:36;;;;;;;23.50;15.60;;;;;;;1.57;75.07;101899.46;104541;1322;37164;-71
2022/11/30 09:24:13;;;;;;;25.30;16.70;;;;;;;1.61;75.00;101902.32;104513;1321;37096;-70
2022/11/30 09:26:48;;;;;;;24.50;15.70;;;;;;;1.58;74.81;101903.80;104516;1320;37966;-70
2022/11/30 09:29:22;;;;;;;19.50;13.70;;;;;;;1.54;74.91;101899.59;104510;1316;37017;-71
2022/11/30 09:31:56;;;;;;;27.00;16.00;;;;;;;1.54;74.85;101901.30;104511;1322;37849;-70
2022/11/30 09:34:31;;;;;;;21.40;15.00;;;;;;;1.59;75.17;101904.67;104498;1322;37108;-69
2022/11/30 09:37:05;;;;;;;23.60;14.10;;;;;;;1.66;75.26;101904.84;104524;1322;37108;-71
2022/11/30 09:39:40;;;;;;;21.00;13.30;;;;;;;1.68;74.86;101902.15;104393;1320;172487;-70
2022/11/30 09:42:41;;;;;;;22.50;14.70;;;;;;;1.65;74.57;101903.11;104528;1315;37222;-69
2022/11/30 09:45:19;;;;;;;21.20;14.20;;;;;;;1.58;74.74;101902.08;104493;1316;37035;-70
2022/11/30 09:48:20;;;;;;;23.60;15.10;;;;;;;1.57;74.88;101904.80;104524;1316;37625;-70
2022/11/30 09:50:56;;;;;;;20.80;13.90;;;;;;;1.54;74.74;101907.33;104512;1316;37426;-69
2022/11/30 09:53:34;;;;;;;27.80;14.80;;;;;;;1.56;75.06;101901.67;104488;1322;37088;-69
2022/11/30 09:56:18;;;;;;;24.70;15.50;;;;;;;1.61;75.09;101904.38;104523;1322;37093;-70
2022/11/30 09:58:55;;;;;;;20.70;13.40;;;;;;;1.62;74.85;101903.21;104524;1315;37508;-73
2022/11/30 10:01:30;;;;;;;19.40;13.70;;;;;;;1.59;74.93;101905.02;104486;1315;37639;-69
2022/11/30 10:04:06;;;;;;;21.70;14.10;;;;;;;1.57;74.87;101903.76;104506;1316;38999;-72
2022/11/30 10:06:48;;;;;;;32.20;18.50;;;;;;;1.57;74.94;101901.71;104501;1316;37483;-70
2022/11/30 10:09:42;;;;;;;27.50;15.80;;;;;;;1.59;74.98;101898.48;104500;1315;36985;-70
2022/11/30 10:12:19;;;;;;;20.40;13.40;;;;;;;1.59;75.09;101900.91;104522;1319;37027;-69
2022/11/30 10:15:05;;;;;;;23.70;15.30;;;;;;;1.58;75.21;101901.73;104521;1315;37069;-70
2022/11/30 10:17:46;;;;;;;26.80;17.20;;;;;;;1.59;75.30;101900.20;104505;1316;37286;-71
2022/11/30 10:20:36;;;;;;;18.60;14.30;;;;;;;1.62;75.30;101902.00;104512;1316;37149;-69
2022/11/30 10:23:21;;;;;;;22.20;14.40;;;;;;;1.59;75.21;101900.22;104519;1318;36434;-70
2022/11/30 10:26:05;;;;;;;20.30;15.00;;;;;;;1.60;75.33;101898.68;104494;1316;37102;-71
2022/11/30 10:28:51;;;;;;;19.90;13.50;;;;;;;1.62;75.28;101897.19;104507;1315;37345;-69
2022/11/30 10:31:33;;;;;;;20.10;13.80;;;;;;;1.59;75.20;101897.81;104527;1315;37098;-69
2022/11/30 10:34:20;;;;;;;19.10;13.40;;;;;;;1.60;75.44;101901.78;104512;1319;37021;-69
2022/11/30 10:37:04;;;;;;;20.40;12.80;;;;;;;1.63;75.31;101896.19;104529;1322;37297;-70
2022/11/30 10:39:43;;;;;;;12.50;9.20;;;;;;;1.65;75.32;101899.31;104507;1316;37072;-71
2022/11/30 10:42:22;;;;;;;13.50;9.90;;;;;;;1.66;75.32;101895.55;104507;1316;37309;-72
2022/11/30 10:45:01;;;;;;;16.20;11.70;;;;;;;1.70;75.46;101895.66;104549;1316;37224;-72
2022/11/30 10:47:43;;;;;;;14.80;10.00;;;;;;;1.72;75.13;101894.14;104548;1316;37214;-71
2022/11/30 10:50:21;;;;;;;16.10;12.00;;;;;;;1.67;75.17;101894.55;104490;1316;37193;-71
2022/11/30 10:53:00;;;;;;;16.00;11.70;;;;;;;1.69;75.30;101888.58;104545;1315;37375;-71
2022/11/30 10:55:40;;;;;;;16.80;11.90;;;;;;;1.73;75.36;101888.30;104513;1321;37593;-70
2022/11/30 10:58:17;;;;;;;;;;;;;;;1.75;75.30;101889.23;104524;1322;37089;-70
2022/11/30 11:01:04;;;;;;;17.40;12.80;;;;;;;1.74;75.29;101891.45;104502;1322;37055;-69
2022/11/30 11:03:37;;;;;;;18.00;12.10;;;;;;;1.74;75.49;101892.48;104535;1322;36997;-71
2022/11/30 11:10:01;;;;;;;18.90;11.70;;;;;;;1.77;75.72;101877.05;104213;1309;37610;-71
2022/11/30 11:12:35;;;;;;;19.40;12.30;;;;;;;1.81;75.55;101879.54;104359;1321;37355;-71
2022/11/30 11:15:25;;;;;;;17.60;11.70;;;;;;;1.82;75.38;101880.59;104365;1319;36904;-72
2022/11/30 11:18:22;;;;;;;18.20;13.20;;;;;;;1.82;75.32;101883.71;104379;1323;39819;-71
2022/11/30 11:21:06;;;;;;;13.90;10.20;;;;;;;1.90;75.49;101885.41;104348;1323;37132;-71
2022/11/30 11:23:44;;;;;;;16.50;11.70;;;;;;;1.88;75.15;101882.64;104375;1316;37087;-72
2022/11/30 11:26:24;;;;;;;15.70;10.50;;;;;;;1.85;75.07;101885.14;104407;1308;37213;-71
2022/11/30 11:29:02;;;;;;;16.00;10.10;;;;;;;1.81;75.04;101881.27;104360;1315;37053;-71
2022/11/30 11:31:41;;;;;;;16.10;10.70;;;;;;;1.80;75.01;101884.16;104349;1316;37024;-71
2022/11/30 11:34:31;;;;;;;18.20;11.80;;;;;;;1.82;75.34;101884.38;104359;1315;36051;-68
2022/11/30 11:37:18;;;;;;;14.50;10.10;;;;;;;1.83;75.25;101887.85;104378;1323;38154;-71
2022/11/30 11:40:13;;;;;;;15.80;11.50;;;;;;;1.80;75.28;101881.59;104360;1315;37043;-71
2022/11/30 11:42:53;;;;;;;14.90;10.50;;;;;;;1.77;75.32;101882.38;104396;1315;37041;-69
2022/11/30 11:45:28;;;;;;;15.70;11.10;;;;;;;1.75;75.48;101881.48;104363;1315;37093;-72
2022/11/30 11:48:07;;;;;;;15.60;11.20;;;;;;;1.79;75.72;101881.05;104394;1321;37130;-71
2022/11/30 11:50:48;;;;;;;15.30;11.30;;;;;;;1.82;75.60;101880.95;104344;1315;37089;-69
2022/11/30 11:53:24;;;;;;;16.00;10.80;;;;;;;1.77;75.46;101882.91;104371;1315;37190;-71
2022/11/30 11:56:02;;;;;;;12.60;9.20;;;;;;;1.76;75.47;101881.48;104372;1316;37339;-71
2022/11/30 11:58:44;;;;;;;12.60;8.90;;;;;;;1.76;75.74;101882.02;104353;1323;37504;-71
2022/11/30 12:01:31;;;;;;;15.80;9.50;;;;;;;1.76;75.66;101885.80;104364;1315;37048;-71
2022/11/30 12:04:23;;;;;;;11.10;8.20;;;;;;;1.74;75.68;101879.06;104359;1321;37107;-71